Thunder radar more information blitzortung!


Radar de pluja more information rain snow radar


Visita la nostra xarxa de llocs de meteo:

Template documentation
and downloads

And another site



No particular awareness of the weather is required.    There are no Weather-warnings

Pagina Historial Weather Underground text

Diari Resum Desembre 2, 2017 Unitats:  Tant    Imperial   Mètric
« Previous Dia
SegĂźent Dia »
Diari Setmana Mensual Anual Personalitzada
  Maxima: Minima: Media:
Temperatura: 49.3 °F /  9.6 °C 31.1 °F /  -0.5 °C 40.1 °F /  4.5 °C
Punt de rosada: 21 °F /  -6.1 °C 5.4 °F /  -14.8 °C 13.6 °F /  -10.2 °C
Humitat: 51 % 19 % 36 %
Wind Speed: 12.7 mph /  20.4 km/h - 4.1 mph /  6.6 km/h
RĂ fegues de vent: 12.7 mph /  20.4 km/h - -
Vent:- - SW
Pression baro: 30 in /  1015.8 hPa 29.8 in /  1009.0 hPa -
Precipitacions: 0 in /  0.0 mm    
Historical Graphs
 
 
Dades de taula per Desembre 2, 2017
Temps Temperatura Punt de rosada Pression baro Vent Wind Speed RĂ fegues de vent Humitat Rainfall Rate (Hourly)
00:04 36.1 °F /  2.3 °C 15.8 °F /  -9.0 °C 29.9 in /  1013.8 hPa WSW 4.6 mph /  7.4 km/h 4.6 mph /  7.4 km/h 43 % 0 in /  0.0 mm
00:15 35.8 °F /  2.1 °C 15.4 °F /  -9.2 °C 29.9 in /  1013.8 hPa WSW 5 mph /  8.0 km/h 5 mph /  8.0 km/h 43 % 0 in /  0.0 mm
00:20 36 °F /  2.2 °C 15.1 °F /  -9.4 °C 29.9 in /  1013.8 hPa WSW 2 mph /  3.2 km/h 2 mph /  3.2 km/h 42 % 0 in /  0.0 mm
00:25 35.6 °F /  2.0 °C 14.7 °F /  -9.6 °C 29.9 in /  1013.8 hPa SW 2 mph /  3.2 km/h 3 mph /  4.8 km/h 42 % 0 in /  0.0 mm
00:30 35.6 °F /  2.0 °C 14.7 °F /  -9.6 °C 29.9 in /  1013.8 hPa WSW 2 mph /  3.2 km/h 3 mph /  4.8 km/h 42 % 0 in /  0.0 mm
00:35 35.6 °F /  2.0 °C 14.2 °F /  -9.9 °C 29.9 in /  1013.8 hPa SW 2 mph /  3.2 km/h 3 mph /  4.8 km/h 41 % 0 in /  0.0 mm
00:40 35.2 °F /  1.8 °C 13.8 °F /  -10.1 °C 29.9 in /  1013.8 hPa WSW 2 mph /  3.2 km/h 2 mph /  3.2 km/h 41 % 0 in /  0.0 mm
00:45 35.1 °F /  1.7 °C 13.6 °F /  -10.2 °C 29.9 in /  1013.8 hPa West 1 mph /  1.6 km/h 2 mph /  3.2 km/h 41 % 0 in /  0.0 mm
00:55 35.2 °F /  1.8 °C 13.8 °F /  -10.1 °C 29.9 in /  1013.8 hPa WSW 2 mph /  3.2 km/h 3 mph /  4.8 km/h 41 % 0 in /  0.0 mm
01:00 35.2 °F /  1.8 °C 13.8 °F /  -10.1 °C 29.9 in /  1013.8 hPa WSW 1 mph /  1.6 km/h 2 mph /  3.2 km/h 41 % 0 in /  0.0 mm
01:10 35.1 °F /  1.7 °C 14.2 °F /  -9.9 °C 29.9 in /  1013.8 hPa WSW 2 mph /  3.2 km/h 4 mph /  6.4 km/h 42 % 0 in /  0.0 mm
01:15 35.1 °F /  1.7 °C 14.2 °F /  -9.9 °C 29.9 in /  1012.8 hPa WSW 1 mph /  1.6 km/h 4 mph /  6.4 km/h 42 % 0 in /  0.0 mm
01:25 34.9 °F /  1.6 °C 14.2 °F /  -9.9 °C 29.9 in /  1012.8 hPa West 2 mph /  3.2 km/h 2 mph /  3.2 km/h 42 % 0 in /  0.0 mm
01:30 34.7 °F /  1.5 °C 13.8 °F /  -10.1 °C 29.9 in /  1012.8 hPa West 1 mph /  1.6 km/h   42 % 0 in /  0.0 mm
01:35 34.5 °F /  1.4 °C 13.8 °F /  -10.1 °C 29.9 in /  1012.8 hPa WSW 2 mph /  3.2 km/h 2 mph /  3.2 km/h 42 % 0 in /  0.0 mm
01:45 34.3 °F /  1.3 °C 13.6 °F /  -10.2 °C 29.9 in /  1012.8 hPa Calm   2 mph /  3.2 km/h 42 % 0 in /  0.0 mm
01:50 34.2 °F /  1.2 °C 13.5 °F /  -10.3 °C 29.9 in /  1012.8 hPa WSW 2 mph /  3.2 km/h 4 mph /  6.4 km/h 42 % 0 in /  0.0 mm
01:55 34.3 °F /  1.3 °C 13.6 °F /  -10.2 °C 29.9 in /  1012.8 hPa West 2 mph /  3.2 km/h 4 mph /  6.4 km/h 42 % 0 in /  0.0 mm
02:00 34.5 °F /  1.4 °C 14.4 °F /  -9.8 °C 29.9 in /  1012.8 hPa West 3 mph /  4.8 km/h 3 mph /  4.8 km/h 43 % 0 in /  0.0 mm
02:05 34.3 °F /  1.3 °C 14.2 °F /  -9.9 °C 29.9 in /  1012.8 hPa West 2 mph /  3.2 km/h 3 mph /  4.8 km/h 43 % 0 in /  0.0 mm
02:15 34.3 °F /  1.3 °C 14.2 °F /  -9.9 °C 29.9 in /  1012.8 hPa WSW 3 mph /  4.8 km/h 3 mph /  4.8 km/h 43 % 0 in /  0.0 mm
02:20 34.5 °F /  1.4 °C 14.4 °F /  -9.8 °C 29.9 in /  1012.8 hPa West 3 mph /  4.8 km/h 3 mph /  4.8 km/h 43 % 0 in /  0.0 mm
02:25 34.5 °F /  1.4 °C 14.4 °F /  -9.8 °C 29.9 in /  1012.8 hPa West 2 mph /  3.2 km/h 3 mph /  4.8 km/h 43 % 0 in /  0.0 mm
02:30 34.3 °F /  1.3 °C 14.2 °F /  -9.9 °C 29.9 in /  1012.8 hPa WSW 3 mph /  4.8 km/h 3 mph /  4.8 km/h 43 % 0 in /  0.0 mm
02:35 34.2 °F /  1.2 °C 14 °F /  -10.0 °C 29.9 in /  1012.8 hPa WSW 3 mph /  4.8 km/h 5 mph /  8.0 km/h 43 % 0 in /  0.0 mm
02:40 34.5 °F /  1.4 °C 14.4 °F /  -9.8 °C 29.9 in /  1012.8 hPa WSW 3 mph /  4.8 km/h 5 mph /  8.0 km/h 43 % 0 in /  0.0 mm
02:45 34.5 °F /  1.4 °C 14.4 °F /  -9.8 °C 29.9 in /  1012.8 hPa West 5 mph /  8.0 km/h 5 mph /  8.0 km/h 43 % 0 in /  0.0 mm
03:00 34.5 °F /  1.4 °C 14.4 °F /  -9.8 °C 29.9 in /  1012.8 hPa WSW 6 mph /  9.7 km/h 6 mph /  9.7 km/h 43 % 0 in /  0.0 mm
03:05 34.5 °F /  1.4 °C 14.4 °F /  -9.8 °C 29.9 in /  1012.8 hPa WSW 3 mph /  4.8 km/h 4 mph /  6.4 km/h 43 % 0 in /  0.0 mm
03:10 34.5 °F /  1.4 °C 14.4 °F /  -9.8 °C 29.9 in /  1012.8 hPa WSW 3 mph /  4.8 km/h 4 mph /  6.4 km/h 43 % 0 in /  0.0 mm
03:15 34.3 °F /  1.3 °C 14.2 °F /  -9.9 °C 29.9 in /  1012.8 hPa WSW 3 mph /  4.8 km/h 3 mph /  4.8 km/h 43 % 0 in /  0.0 mm
03:20 34.3 °F /  1.3 °C 14.2 °F /  -9.9 °C 29.9 in /  1012.8 hPa WSW 1 mph /  1.6 km/h 3 mph /  4.8 km/h 43 % 0 in /  0.0 mm
03:25 34.3 °F /  1.3 °C 14.2 °F /  -9.9 °C 29.9 in /  1012.8 hPa SW 2 mph /  3.2 km/h 4 mph /  6.4 km/h 43 % 0 in /  0.0 mm
03:30 34.3 °F /  1.3 °C 14.2 °F /  -9.9 °C 29.9 in /  1011.7 hPa West 3 mph /  4.8 km/h 4 mph /  6.4 km/h 43 % 0 in /  0.0 mm
03:35 34.2 °F /  1.2 °C 14 °F /  -10.0 °C 29.9 in /  1011.7 hPa West 2 mph /  3.2 km/h 3 mph /  4.8 km/h 43 % 0 in /  0.0 mm
03:45 34.2 °F /  1.2 °C 14 °F /  -10.0 °C 29.9 in /  1011.7 hPa WSW 3 mph /  4.8 km/h 4 mph /  6.4 km/h 43 % 0 in /  0.0 mm
03:55 34 °F /  1.1 °C 14.4 °F /  -9.8 °C 29.9 in /  1011.7 hPa SW 3 mph /  4.8 km/h 4 mph /  6.4 km/h 44 % 0 in /  0.0 mm
04:00 34.2 °F /  1.2 °C 14.5 °F /  -9.7 °C 29.9 in /  1011.7 hPa WSW 6 mph /  9.7 km/h 6 mph /  9.7 km/h 44 % 0 in /  0.0 mm
04:05 34.5 °F /  1.4 °C 14.7 °F /  -9.6 °C 29.9 in /  1011.7 hPa WSW 8 mph /  12.9 km/h 8 mph /  12.9 km/h 44 % 0 in /  0.0 mm
04:10 34.5 °F /  1.4 °C 14.7 °F /  -9.6 °C 29.9 in /  1011.7 hPa WSW 6 mph /  9.7 km/h 6 mph /  9.7 km/h 44 % 0 in /  0.0 mm
04:15 34.5 °F /  1.4 °C 15.3 °F /  -9.3 °C 29.9 in /  1011.7 hPa WSW 7 mph /  11.3 km/h 7 mph /  11.3 km/h 45 % 0 in /  0.0 mm
04:20 34.5 °F /  1.4 °C 15.3 °F /  -9.3 °C 29.9 in /  1011.7 hPa WSW 5 mph /  8.0 km/h 6 mph /  9.7 km/h 45 % 0 in /  0.0 mm
04:25 34.5 °F /  1.4 °C 15.3 °F /  -9.3 °C 29.9 in /  1011.7 hPa West 3 mph /  4.8 km/h 4 mph /  6.4 km/h 45 % 0 in /  0.0 mm
04:30 34.2 °F /  1.2 °C 15.1 °F /  -9.4 °C 29.9 in /  1011.7 hPa West 3 mph /  4.8 km/h 4 mph /  6.4 km/h 45 % 0 in /  0.0 mm
04:35 34 °F /  1.1 °C 14.7 °F /  -9.6 °C 29.9 in /  1011.7 hPa WSW 3 mph /  4.8 km/h 5 mph /  8.0 km/h 45 % 0 in /  0.0 mm
04:40 33.8 °F /  1.0 °C 15.3 °F /  -9.3 °C 29.9 in /  1011.7 hPa West 3 mph /  4.8 km/h 5 mph /  8.0 km/h 46 % 0 in /  0.0 mm
04:45 34 °F /  1.1 °C 15.3 °F /  -9.3 °C 29.9 in /  1011.7 hPa West 5 mph /  8.0 km/h 5 mph /  8.0 km/h 46 % 0 in /  0.0 mm
04:50 34.2 °F /  1.2 °C 15.4 °F /  -9.2 °C 29.9 in /  1011.7 hPa West 3 mph /  4.8 km/h 5 mph /  8.0 km/h 46 % 0 in /  0.0 mm
04:55 34.2 °F /  1.2 °C 15.4 °F /  -9.2 °C 29.9 in /  1011.7 hPa WNW 2 mph /  3.2 km/h 3 mph /  4.8 km/h 46 % 0 in /  0.0 mm
05:00 34 °F /  1.1 °C 15.8 °F /  -9.0 °C 29.9 in /  1011.7 hPa West 1 mph /  1.6 km/h 2 mph /  3.2 km/h 47 % 0 in /  0.0 mm
05:05 33.8 °F /  1.0 °C 15.6 °F /  -9.1 °C 29.9 in /  1011.7 hPa WSW 2 mph /  3.2 km/h 2 mph /  3.2 km/h 47 % 0 in /  0.0 mm
05:10 33.8 °F /  1.0 °C 15.6 °F /  -9.1 °C 29.9 in /  1011.7 hPa West 1 mph /  1.6 km/h 2 mph /  3.2 km/h 47 % 0 in /  0.0 mm
05:15 33.3 °F /  0.7 °C 15.3 °F /  -9.3 °C 29.9 in /  1011.7 hPa WNW 1 mph /  1.6 km/h 2 mph /  3.2 km/h 47 % 0 in /  0.0 mm
05:20 33.1 °F /  0.6 °C 15.1 °F /  -9.4 °C 29.9 in /  1011.7 hPa West 1 mph /  1.6 km/h 2 mph /  3.2 km/h 47 % 0 in /  0.0 mm
05:25 32.9 °F /  0.5 °C 14.7 °F /  -9.6 °C 29.9 in /  1011.7 hPa NW 2 mph /  3.2 km/h 2 mph /  3.2 km/h 47 % 0 in /  0.0 mm
05:30 32.9 °F /  0.5 °C 14.7 °F /  -9.6 °C 29.9 in /  1012.8 hPa WNW 1 mph /  1.6 km/h 2 mph /  3.2 km/h 47 % 0 in /  0.0 mm
05:35 32.9 °F /  0.5 °C 14.7 °F /  -9.6 °C 29.9 in /  1012.8 hPa Calm   1 mph /  1.6 km/h 47 % 0 in /  0.0 mm
05:40 32.7 °F /  0.4 °C 15.3 °F /  -9.3 °C 29.9 in /  1012.8 hPa NNW 1 mph /  1.6 km/h 2 mph /  3.2 km/h 48 % 0 in /  0.0 mm
05:45 32.7 °F /  0.4 °C 15.3 °F /  -9.3 °C 29.9 in /  1012.8 hPa NE 2 mph /  3.2 km/h 2 mph /  3.2 km/h 48 % 0 in /  0.0 mm
05:55 32.2 °F /  0.1 °C 14.2 °F /  -9.9 °C 29.9 in /  1012.8 hPa NW 1 mph /  1.6 km/h 2 mph /  3.2 km/h 47 % 0 in /  0.0 mm
06:00 32.2 °F /  0.1 °C 14.2 °F /  -9.9 °C 29.9 in /  1013.8 hPa NNW 1 mph /  1.6 km/h 2 mph /  3.2 km/h 47 % 0 in /  0.0 mm
06:10 32 °F /  0.0 °C 14.5 °F /  -9.7 °C 29.9 in /  1013.8 hPa NW 1 mph /  1.6 km/h 3 mph /  4.8 km/h 48 % 0 in /  0.0 mm
06:15 31.8 °F /  -0.1 °C 14.4 °F /  -9.8 °C 29.9 in /  1013.8 hPa NNE 1 mph /  1.6 km/h 3 mph /  4.8 km/h 48 % 0 in /  0.0 mm
06:20 31.6 °F /  -0.2 °C 14.2 °F /  -9.9 °C 29.9 in /  1013.8 hPa NNE 2 mph /  3.2 km/h 4 mph /  6.4 km/h 48 % 0 in /  0.0 mm
06:25 31.5 °F /  -0.3 °C 14 °F /  -10.0 °C 29.9 in /  1013.8 hPa Calm   4 mph /  6.4 km/h 48 % 0 in /  0.0 mm
06:30 31.3 °F /  -0.4 °C 13.8 °F /  -10.1 °C 29.9 in /  1013.8 hPa NE 1 mph /  1.6 km/h 3 mph /  4.8 km/h 48 % 0 in /  0.0 mm
06:35 31.1 °F /  -0.5 °C 14.2 °F /  -9.9 °C 29.9 in /  1013.8 hPa NNE 2 mph /  3.2 km/h 2 mph /  3.2 km/h 49 % 0 in /  0.0 mm
06:40 31.1 °F /  -0.5 °C 14.2 °F /  -9.9 °C 29.9 in /  1013.8 hPa NE 2 mph /  3.2 km/h 2 mph /  3.2 km/h 49 % 0 in /  0.0 mm
06:50 31.3 °F /  -0.4 °C 14.7 °F /  -9.6 °C 29.9 in /  1013.8 hPa NNE 1 mph /  1.6 km/h 5 mph /  8.0 km/h 50 % 0 in /  0.0 mm
06:55 31.5 °F /  -0.3 °C 14.9 °F /  -9.5 °C 29.9 in /  1013.8 hPa WNW 1 mph /  1.6 km/h 3 mph /  4.8 km/h 50 % 0 in /  0.0 mm
07:00 31.5 °F /  -0.3 °C 14.9 °F /  -9.5 °C 29.9 in /  1012.8 hPa WSW 1 mph /  1.6 km/h 3 mph /  4.8 km/h 50 % 0 in /  0.0 mm
07:05 31.8 °F /  -0.1 °C 15.3 °F /  -9.3 °C 29.9 in /  1012.8 hPa West 2 mph /  3.2 km/h   50 % 0 in /  0.0 mm
07:10 31.8 °F /  -0.1 °C 15.3 °F /  -9.3 °C 29.9 in /  1012.8 hPa West 2 mph /  3.2 km/h 2 mph /  3.2 km/h 50 % 0 in /  0.0 mm
07:19 31.8 °F /  -0.1 °C 15.3 °F /  -9.3 °C 29.9 in /  1013.8 hPa ENE 2.4 mph /  3.9 km/h 2.4 mph /  3.9 km/h 50 % 0 in /  0.0 mm
07:20 31.8 °F /  -0.1 °C 15.3 °F /  -9.3 °C 29.9 in /  1013.8 hPa ENE 2.6 mph /  4.2 km/h 2.6 mph /  4.2 km/h 50 % 0 in /  0.0 mm
07:25 31.6 °F /  -0.2 °C 15.6 °F /  -9.1 °C 29.9 in /  1013.8 hPa NE 2.3 mph /  3.7 km/h 2.4 mph /  3.9 km/h 51 % 0 in /  0.0 mm
07:30 31.3 °F /  -0.4 °C 15.3 °F /  -9.3 °C 29.9 in /  1013.8 hPa East 1.6 mph /  2.6 km/h 1.6 mph /  2.6 km/h 51 % 0 in /  0.0 mm
07:35 31.3 °F /  -0.4 °C 15.3 °F /  -9.3 °C 29.9 in /  1013.8 hPa Calm     51 % 0 in /  0.0 mm
07:40 31.3 °F /  -0.4 °C 15.3 °F /  -9.3 °C 29.9 in /  1013.8 hPa WNW 1.2 mph /  1.9 km/h   51 % 0 in /  0.0 mm
07:50 31.8 °F /  -0.1 °C 15.6 °F /  -9.1 °C 29.9 in /  1013.8 hPa West 2.3 mph /  3.7 km/h 2.3 mph /  3.7 km/h 51 % 0 in /  0.0 mm
08:00 32 °F /  0.0 °C 16 °F /  -8.9 °C 29.9 in /  1013.8 hPa ENE 1.6 mph /  2.6 km/h 1.6 mph /  2.6 km/h 51 % 0 in /  0.0 mm
08:15 32.2 °F /  0.1 °C 16.2 °F /  -8.8 °C 29.9 in /  1012.8 hPa NNW 1.2 mph /  1.9 km/h 1.2 mph /  1.9 km/h 51 % 0 in /  0.0 mm
08:20 32.2 °F /  0.1 °C 16.2 °F /  -8.8 °C 29.9 in /  1012.8 hPa West 2.3 mph /  3.7 km/h   51 % 0 in /  0.0 mm
08:25 32.5 °F /  0.3 °C 16.3 °F /  -8.7 °C 29.9 in /  1012.8 hPa WSW 2.4 mph /  3.9 km/h 2.4 mph /  3.9 km/h 51 % 0 in /  0.0 mm
08:35 32.7 °F /  0.4 °C 16.5 °F /  -8.6 °C 29.9 in /  1012.8 hPa WSW 3.5 mph /  5.6 km/h 3.5 mph /  5.6 km/h 51 % 0 in /  0.0 mm
08:40 32.9 °F /  0.5 °C 16.7 °F /  -8.5 °C 29.9 in /  1012.8 hPa WSW 3.5 mph /  5.6 km/h 3.5 mph /  5.6 km/h 51 % 0 in /  0.0 mm
08:45 33.3 °F /  0.7 °C 17.1 °F /  -8.3 °C 29.9 in /  1012.8 hPa West 4.6 mph /  7.4 km/h 4.6 mph /  7.4 km/h 51 % 0 in /  0.0 mm
08:50 33.8 °F /  1.0 °C 17.6 °F /  -8.0 °C 29.9 in /  1012.8 hPa SSW 1.6 mph /  2.6 km/h 1.6 mph /  2.6 km/h 51 % 0 in /  0.0 mm
09:00 34.7 °F /  1.5 °C 18.3 °F /  -7.6 °C 29.9 in /  1013.8 hPa WSW 2.3 mph /  3.7 km/h 2.3 mph /  3.7 km/h 51 % 0 in /  0.0 mm
09:05 34.7 °F /  1.5 °C 18.3 °F /  -7.6 °C 29.9 in /  1013.8 hPa WNW 4.7 mph /  7.6 km/h 4.7 mph /  7.6 km/h 51 % 0 in /  0.0 mm
09:10 35.1 °F /  1.7 °C 18.7 °F /  -7.4 °C 29.9 in /  1013.8 hPa SW 5.8 mph /  9.3 km/h 5.8 mph /  9.3 km/h 51 % 0 in /  0.0 mm
09:15 35.4 °F /  1.9 °C 19 °F /  -7.2 °C 29.9 in /  1013.8 hPa SSW 4 mph /  6.4 km/h 4 mph /  6.4 km/h 51 % 0 in /  0.0 mm
09:25 36.5 °F /  2.5 °C 19.6 °F /  -6.9 °C 29.9 in /  1013.8 hPa WSW 8.1 mph /  13.0 km/h 8.1 mph /  13.0 km/h 50 % 0 in /  0.0 mm
09:30 36.9 °F /  2.7 °C 19.9 °F /  -6.7 °C 29.9 in /  1013.8 hPa WSW 6.9 mph /  11.1 km/h 6.9 mph /  11.1 km/h 50 % 0 in /  0.0 mm
09:40 37.6 °F /  3.1 °C 20.7 °F /  -6.3 °C 29.9 in /  1013.8 hPa WNW 5.4 mph /  8.7 km/h 5.4 mph /  8.7 km/h 50 % 0 in /  0.0 mm
09:45 38.1 °F /  3.4 °C 20.7 °F /  -6.3 °C 29.9 in /  1013.8 hPa WSW 3.5 mph /  5.6 km/h 3.5 mph /  5.6 km/h 49 % 0 in /  0.0 mm
09:50 38.3 °F /  3.5 °C 20.3 °F /  -6.5 °C 29.9 in /  1013.8 hPa WSW 3.6 mph /  5.8 km/h 3.6 mph /  5.8 km/h 48 % 0 in /  0.0 mm
09:55 38.7 °F /  3.7 °C 20.7 °F /  -6.3 °C 29.9 in /  1013.8 hPa WSW 11.5 mph /  18.5 km/h 11.5 mph /  18.5 km/h 48 % 0 in /  0.0 mm
10:00 39 °F /  3.9 °C 20.5 °F /  -6.4 °C 29.9 in /  1013.8 hPa WSW 8.1 mph /  13.0 km/h 8.1 mph /  13.0 km/h 47 % 0 in /  0.0 mm
10:20 40.1 °F /  4.5 °C 21 °F /  -6.1 °C 29.9 in /  1013.8 hPa WSW 5.8 mph /  9.3 km/h 5.8 mph /  9.3 km/h 46 % 0 in /  0.0 mm
10:25 40.6 °F /  4.8 °C 20.8 °F /  -6.2 °C 29.9 in /  1013.8 hPa SW 3.5 mph /  5.6 km/h 3.5 mph /  5.6 km/h 45 % 0 in /  0.0 mm
10:30 40.8 °F /  4.9 °C 21 °F /  -6.1 °C 29.9 in /  1012.8 hPa WSW 7.1 mph /  11.4 km/h 7.1 mph /  11.4 km/h 45 % 0 in /  0.0 mm
10:35 41.2 °F /  5.1 °C 20.8 °F /  -6.2 °C 29.9 in /  1012.8 hPa West 10.2 mph /  16.4 km/h 10.2 mph /  16.4 km/h 44 % 0 in /  0.0 mm
10:40 41.2 °F /  5.1 °C 20.3 °F /  -6.5 °C 29.9 in /  1012.8 hPa WSW 9.8 mph /  15.8 km/h 9.8 mph /  15.8 km/h 43 % 0 in /  0.0 mm
10:50 42.1 °F /  5.6 °C 20.7 °F /  -6.3 °C 29.9 in /  1013.8 hPa West 5.8 mph /  9.3 km/h 5.8 mph /  9.3 km/h 42 % 0 in /  0.0 mm
10:55 42.3 °F /  5.7 °C 20.1 °F /  -6.6 °C 29.9 in /  1013.8 hPa West 8.1 mph /  13.0 km/h 8.1 mph /  13.0 km/h 41 % 0 in /  0.0 mm
11:00 42.6 °F /  5.9 °C 20.5 °F /  -6.4 °C 29.9 in /  1012.8 hPa West 9.2 mph /  14.8 km/h 9.2 mph /  14.8 km/h 41 % 0 in /  0.0 mm
11:05 43 °F /  6.1 °C 20.3 °F /  -6.5 °C 29.9 in /  1012.8 hPa SW 8.1 mph /  13.0 km/h 8.1 mph /  13.0 km/h 40 % 0 in /  0.0 mm
11:10 43.5 °F /  6.4 °C 20.8 °F /  -6.2 °C 29.9 in /  1012.8 hPa WSW 5.9 mph /  9.5 km/h 5.9 mph /  9.5 km/h 40 % 0 in /  0.0 mm
11:15 43.3 °F /  6.3 °C 19.4 °F /  -7.0 °C 29.9 in /  1013.8 hPa West 10.4 mph /  16.7 km/h 10.4 mph /  16.7 km/h 38 % 0 in /  0.0 mm
11:20 43.5 °F /  6.4 °C 19.6 °F /  -6.9 °C 29.9 in /  1013.8 hPa West 10.4 mph /  16.7 km/h 10.4 mph /  16.7 km/h 38 % 0 in /  0.0 mm
11:25 44.2 °F /  6.8 °C 20.1 °F /  -6.6 °C 29.9 in /  1013.8 hPa South 5.6 mph /  9.0 km/h 5.6 mph /  9.0 km/h 38 % 0 in /  0.0 mm
11:30 43.9 °F /  6.6 °C 19.9 °F /  -6.7 °C 29.9 in /  1012.8 hPa West 8.1 mph /  13.0 km/h 8.1 mph /  13.0 km/h 38 % 0 in /  0.0 mm
11:40 43.3 °F /  6.3 °C 18.1 °F /  -7.7 °C 29.9 in /  1012.8 hPa West 9.8 mph /  15.8 km/h 9.8 mph /  15.8 km/h 36 % 0 in /  0.0 mm
11:45 43.5 °F /  6.4 °C 18.3 °F /  -7.6 °C 29.9 in /  1012.8 hPa SW 6.9 mph /  11.1 km/h 6.9 mph /  11.1 km/h 36 % 0 in /  0.0 mm
11:50 43.7 °F /  6.5 °C 18.5 °F /  -7.5 °C 29.9 in /  1012.8 hPa WSW 5.8 mph /  9.3 km/h 5.8 mph /  9.3 km/h 36 % 0 in /  0.0 mm
11:55 43.9 °F /  6.6 °C 18 °F /  -7.8 °C 29.9 in /  1012.8 hPa SW 6.9 mph /  11.1 km/h 6.9 mph /  11.1 km/h 35 % 0 in /  0.0 mm
12:00 44.2 °F /  6.8 °C 18.3 °F /  -7.6 °C 29.9 in /  1012.8 hPa WNW 8.1 mph /  13.0 km/h 8.1 mph /  13.0 km/h 35 % 0 in /  0.0 mm
12:05 44.4 °F /  6.9 °C 18.3 °F /  -7.6 °C 29.9 in /  1012.8 hPa WSW 9.2 mph /  14.8 km/h 9.2 mph /  14.8 km/h 35 % 0 in /  0.0 mm
12:08 44.4 °F /  6.9 °C 18.3 °F /  -7.6 °C 29.9 in /  1012.8 hPa WSW 10.4 mph /  16.7 km/h 10.4 mph /  16.7 km/h 35 % 0 in /  0.0 mm
12:13 44.8 °F /  7.1 °C 18.1 °F /  -7.7 °C 29.9 in /  1012.8 hPa NNW 10.5 mph /  16.9 km/h 10.5 mph /  16.9 km/h 34 % 0 in /  0.0 mm
12:18 45 °F /  7.2 °C 17.4 °F /  -8.1 °C 29.9 in /  1011.7 hPa SW 6.9 mph /  11.1 km/h 6.9 mph /  11.1 km/h 33 % 0 in /  0.0 mm
12:23 45.1 °F /  7.3 °C 17.8 °F /  -7.9 °C 29.9 in /  1011.7 hPa WNW 5.8 mph /  9.3 km/h 5.8 mph /  9.3 km/h 33 % 0 in /  0.0 mm
12:28 45 °F /  7.2 °C 17.4 °F /  -8.1 °C 29.9 in /  1011.7 hPa West 7.6 mph /  12.2 km/h 7.6 mph /  12.2 km/h 33 % 0 in /  0.0 mm
12:33 45 °F /  7.2 °C 16.9 °F /  -8.4 °C 29.9 in /  1011.7 hPa West 9.2 mph /  14.8 km/h 9.2 mph /  14.8 km/h 32 % 0 in /  0.0 mm
12:43 45.9 °F /  7.7 °C 17.6 °F /  -8.0 °C 29.9 in /  1011.7 hPa West 5.8 mph /  9.3 km/h 5.8 mph /  9.3 km/h 32 % 0 in /  0.0 mm
12:58 46.8 °F /  8.2 °C 17.8 °F /  -7.9 °C 29.9 in /  1011.7 hPa WSW 8.1 mph /  13.0 km/h 8.1 mph /  13.0 km/h 31 % 0 in /  0.0 mm
13:08 47.1 °F /  8.4 °C 18 °F /  -7.8 °C 29.9 in /  1011.7 hPa NNW 5.8 mph /  9.3 km/h 5.8 mph /  9.3 km/h 31 % 0 in /  0.0 mm
13:13 47.7 °F /  8.7 °C 18.5 °F /  -7.5 °C 29.9 in /  1011.7 hPa WSW 12.7 mph /  20.4 km/h 12.7 mph /  20.4 km/h 31 % 0 in /  0.0 mm
13:18 47.5 °F /  8.6 °C 17.4 °F /  -8.1 °C 29.8 in /  1010.7 hPa SW 11.5 mph /  18.5 km/h 11.5 mph /  18.5 km/h 30 % 0 in /  0.0 mm
13:33 48.2 °F /  9.0 °C 18.1 °F /  -7.7 °C 29.8 in /  1010.0 hPa SW 8.1 mph /  13.0 km/h 8.1 mph /  13.0 km/h 30 % 0 in /  0.0 mm
13:38 48.9 °F /  9.4 °C 18.9 °F /  -7.3 °C 29.8 in /  1010.0 hPa West 11.5 mph /  18.5 km/h 11.5 mph /  18.5 km/h 30 % 0 in /  0.0 mm
13:43 48.9 °F /  9.4 °C 18 °F /  -7.8 °C 29.8 in /  1010.0 hPa NW 4.6 mph /  7.4 km/h 4.6 mph /  7.4 km/h 29 % 0 in /  0.0 mm
13:48 49.3 °F /  9.6 °C 19 °F /  -7.2 °C 29.8 in /  1010.0 hPa West 7.4 mph /  11.9 km/h 7.4 mph /  11.9 km/h 30 % 0 in /  0.0 mm
13:53 49.1 °F /  9.5 °C 19 °F /  -7.2 °C 29.8 in /  1010.0 hPa West 5.8 mph /  9.3 km/h 5.8 mph /  9.3 km/h 30 % 0 in /  0.0 mm
13:58 48.6 °F /  9.2 °C 16.9 °F /  -8.4 °C 29.8 in /  1010.0 hPa WNW 8.1 mph /  13.0 km/h 8.1 mph /  13.0 km/h 28 % 0 in /  0.0 mm
14:03 48.4 °F /  9.1 °C 16 °F /  -8.9 °C 29.8 in /  1010.0 hPa SE 8.1 mph /  13.0 km/h 8.1 mph /  13.0 km/h 27 % 0 in /  0.0 mm
14:13 48.2 °F /  9.0 °C 14.9 °F /  -9.5 °C 29.8 in /  1010.0 hPa WSW 10.4 mph /  16.7 km/h 10.4 mph /  16.7 km/h 26 % 0 in /  0.0 mm
14:18 48.2 °F /  9.0 °C 14.9 °F /  -9.5 °C 29.8 in /  1010.7 hPa SW 6.9 mph /  11.1 km/h 6.9 mph /  11.1 km/h 26 % 0 in /  0.0 mm
14:23 48 °F /  8.9 °C 13.8 °F /  -10.1 °C 29.8 in /  1010.7 hPa WSW 6 mph /  9.7 km/h 6 mph /  9.7 km/h 25 % 0 in /  0.0 mm
14:29 48 °F /  8.9 °C 13.8 °F /  -10.1 °C 29.8 in /  1010.0 hPa WSW 9.7 mph /  15.6 km/h 9.7 mph /  15.6 km/h 25 % 0 in /  0.0 mm
14:34 47.8 °F /  8.8 °C 11.8 °F /  -11.2 °C 29.8 in /  1010.0 hPa West 5.8 mph /  9.3 km/h 5.8 mph /  9.3 km/h 23 % 0 in /  0.0 mm
14:39 48 °F /  8.9 °C 12.9 °F /  -10.6 °C 29.8 in /  1010.0 hPa WNW 5.8 mph /  9.3 km/h 5.8 mph /  9.3 km/h 24 % 0 in /  0.0 mm
14:44 48 °F /  8.9 °C 12.9 °F /  -10.6 °C 29.8 in /  1010.0 hPa West 5.8 mph /  9.3 km/h 5.8 mph /  9.3 km/h 24 % 0 in /  0.0 mm
14:54 47.8 °F /  8.8 °C 12.7 °F /  -10.7 °C 29.8 in /  1010.0 hPa WNW 4.6 mph /  7.4 km/h 4.6 mph /  7.4 km/h 24 % 0 in /  0.0 mm
14:59 47.7 °F /  8.7 °C 11.7 °F /  -11.3 °C 29.8 in /  1009.0 hPa West 6.9 mph /  11.1 km/h 6.9 mph /  11.1 km/h 23 % 0 in /  0.0 mm
15:04 47.7 °F /  8.7 °C 11.7 °F /  -11.3 °C 29.8 in /  1009.0 hPa WSW 8.1 mph /  13.0 km/h 8.1 mph /  13.0 km/h 23 % 0 in /  0.0 mm
15:09 47.5 °F /  8.6 °C 9.3 °F /  -12.6 °C 29.8 in /  1009.0 hPa WSW 11.5 mph /  18.5 km/h 11.5 mph /  18.5 km/h 21 % 0 in /  0.0 mm
15:14 47.3 °F /  8.5 °C 9.3 °F /  -12.6 °C 29.8 in /  1010.0 hPa WNW 6.9 mph /  11.1 km/h 6.9 mph /  11.1 km/h 21 % 0 in /  0.0 mm
15:19 47.3 °F /  8.5 °C 9.3 °F /  -12.6 °C 29.8 in /  1010.0 hPa West 5.8 mph /  9.3 km/h 5.8 mph /  9.3 km/h 21 % 0 in /  0.0 mm
15:24 47.1 °F /  8.4 °C 9.1 °F /  -12.7 °C 29.8 in /  1010.0 hPa WSW 11.8 mph /  19.0 km/h 11.8 mph /  19.0 km/h 21 % 0 in /  0.0 mm
15:29 47.1 °F /  8.4 °C 8.1 °F /  -13.3 °C 29.8 in /  1010.0 hPa WNW 5.8 mph /  9.3 km/h 5.8 mph /  9.3 km/h 20 % 0 in /  0.0 mm
15:39 47.1 °F /  8.4 °C 9.1 °F /  -12.7 °C 29.8 in /  1010.0 hPa WSW 8.1 mph /  13.0 km/h 8.1 mph /  13.0 km/h 21 % 0 in /  0.0 mm
15:44 47.1 °F /  8.4 °C 9.1 °F /  -12.7 °C 29.8 in /  1010.0 hPa West 5.9 mph /  9.5 km/h 5.9 mph /  9.5 km/h 21 % 0 in /  0.0 mm
15:49 47.1 °F /  8.4 °C 8.1 °F /  -13.3 °C 29.8 in /  1010.0 hPa West 9.2 mph /  14.8 km/h 9.2 mph /  14.8 km/h 20 % 0 in /  0.0 mm
15:54 46.9 °F /  8.3 °C 7.9 °F /  -13.4 °C 29.8 in /  1010.0 hPa West 6.9 mph /  11.1 km/h 6.9 mph /  11.1 km/h 20 % 0 in /  0.0 mm
15:59 46.9 °F /  8.3 °C 7.9 °F /  -13.4 °C 29.8 in /  1009.0 hPa NNW 8.1 mph /  13.0 km/h 8.1 mph /  13.0 km/h 20 % 0 in /  0.0 mm
16:04 46.8 °F /  8.2 °C 7.7 °F /  -13.5 °C 29.8 in /  1009.0 hPa SSW 5.8 mph /  9.3 km/h 5.8 mph /  9.3 km/h 20 % 0 in /  0.0 mm
16:09 46.8 °F /  8.2 °C 7.7 °F /  -13.5 °C 29.8 in /  1009.0 hPa ESE 5.8 mph /  9.3 km/h 5.8 mph /  9.3 km/h 20 % 0 in /  0.0 mm
16:14 46.6 °F /  8.1 °C 7.5 °F /  -13.6 °C 29.8 in /  1010.0 hPa SW 4.3 mph /  6.9 km/h 4.3 mph /  6.9 km/h 20 % 0 in /  0.0 mm
16:24 46.6 °F /  8.1 °C 7.5 °F /  -13.6 °C 29.8 in /  1010.0 hPa North 5.8 mph /  9.3 km/h 5.8 mph /  9.3 km/h 20 % 0 in /  0.0 mm
16:29 46.4 °F /  8.0 °C 7.3 °F /  -13.7 °C 29.8 in /  1010.7 hPa SSW 5.8 mph /  9.3 km/h 5.8 mph /  9.3 km/h 20 % 0 in /  0.0 mm
16:34 46.4 °F /  8.0 °C 7.3 °F /  -13.7 °C 29.8 in /  1010.7 hPa WSW 5.8 mph /  9.3 km/h 5.8 mph /  9.3 km/h 20 % 0 in /  0.0 mm
16:39 46.2 °F /  7.9 °C 7.3 °F /  -13.7 °C 29.8 in /  1010.7 hPa West 6.9 mph /  11.1 km/h 6.9 mph /  11.1 km/h 20 % 0 in /  0.0 mm
16:44 46.2 °F /  7.9 °C 7.3 °F /  -13.7 °C 29.8 in /  1010.7 hPa SSW 2.9 mph /  4.7 km/h 2.9 mph /  4.7 km/h 20 % 0 in /  0.0 mm
16:54 46 °F /  7.8 °C 7.2 °F /  -13.8 °C 29.8 in /  1010.7 hPa WSW 4.6 mph /  7.4 km/h 4.6 mph /  7.4 km/h 20 % 0 in /  0.0 mm
16:59 46 °F /  7.8 °C 7.2 °F /  -13.8 °C 29.8 in /  1010.7 hPa West 2.3 mph /  3.7 km/h 2.3 mph /  3.7 km/h 20 % 0 in /  0.0 mm
17:04 46 °F /  7.8 °C 7.2 °F /  -13.8 °C 29.8 in /  1010.7 hPa WNW 2.3 mph /  3.7 km/h 2.3 mph /  3.7 km/h 20 % 0 in /  0.0 mm
17:14 46 °F /  7.8 °C 7.2 °F /  -13.8 °C 29.9 in /  1011.7 hPa NNE 4.6 mph /  7.4 km/h 4.6 mph /  7.4 km/h 20 % 0 in /  0.0 mm
17:19 45.9 °F /  7.7 °C 7 °F /  -13.9 °C 29.9 in /  1011.7 hPa WNW 3.5 mph /  5.6 km/h 3.5 mph /  5.6 km/h 20 % 0 in /  0.0 mm
17:24 45.7 °F /  7.6 °C 6.8 °F /  -14.0 °C 29.9 in /  1011.7 hPa West 2.3 mph /  3.7 km/h 2.3 mph /  3.7 km/h 20 % 0 in /  0.0 mm
17:29 45.5 °F /  7.5 °C 6.6 °F /  -14.1 °C 29.9 in /  1011.7 hPa NNW 2.6 mph /  4.2 km/h 2.6 mph /  4.2 km/h 20 % 0 in /  0.0 mm
17:34 45.5 °F /  7.5 °C 6.6 °F /  -14.1 °C 29.9 in /  1011.7 hPa NW 4.6 mph /  7.4 km/h 4.6 mph /  7.4 km/h 20 % 0 in /  0.0 mm
17:44 45.1 °F /  7.3 °C 5.4 °F /  -14.8 °C 29.9 in /  1011.7 hPa NE 2.6 mph /  4.2 km/h 2.6 mph /  4.2 km/h 19 % 0 in /  0.0 mm
17:54 44.8 °F /  7.1 °C 6.1 °F /  -14.4 °C 29.9 in /  1011.7 hPa NNE 3.5 mph /  5.6 km/h 3.5 mph /  5.6 km/h 20 % 0 in /  0.0 mm
18:00 44.8 °F /  7.1 °C 6.1 °F /  -14.4 °C 29.9 in /  1012.8 hPa NNE 2.3 mph /  3.7 km/h 2.3 mph /  3.7 km/h 20 % 0 in /  0.0 mm
18:07 44.6 °F /  7.0 °C 5.9 °F /  -14.5 °C 29.9 in /  1012.8 hPa NNE 2.3 mph /  3.7 km/h 2.3 mph /  3.7 km/h 20 % 0 in /  0.0 mm
18:12 44.6 °F /  7.0 °C 5.9 °F /  -14.5 °C 29.9 in /  1012.8 hPa NE 3.5 mph /  5.6 km/h 3.5 mph /  5.6 km/h 20 % 0 in /  0.0 mm
18:17 44.4 °F /  6.9 °C 5.7 °F /  -14.6 °C 29.9 in /  1012.8 hPa NE 3.6 mph /  5.8 km/h 3.6 mph /  5.8 km/h 20 % 0 in /  0.0 mm
18:22 44.6 °F /  7.0 °C 5.9 °F /  -14.5 °C 29.9 in /  1012.8 hPa ENE 2.3 mph /  3.7 km/h 2.3 mph /  3.7 km/h 20 % 0 in /  0.0 mm
18:27 44.4 °F /  6.9 °C 5.7 °F /  -14.6 °C 29.9 in /  1012.8 hPa NE 4.3 mph /  6.9 km/h 4.3 mph /  6.9 km/h 20 % 0 in /  0.0 mm
18:37 44.2 °F /  6.8 °C 5.5 °F /  -14.7 °C 29.9 in /  1012.8 hPa NNE 2.3 mph /  3.7 km/h 2.3 mph /  3.7 km/h 20 % 0 in /  0.0 mm
18:42 43.9 °F /  6.6 °C 6.4 °F /  -14.2 °C 29.9 in /  1012.8 hPa NNE 2.9 mph /  4.7 km/h 2.9 mph /  4.7 km/h 21 % 0 in /  0.0 mm
18:48 44.1 °F /  6.7 °C 7.5 °F /  -13.6 °C 29.9 in /  1013.8 hPa ENE 4.6 mph /  7.4 km/h 4.6 mph /  7.4 km/h 22 % 0 in /  0.0 mm
18:53 44.1 °F /  6.7 °C 7.5 °F /  -13.6 °C 29.9 in /  1013.8 hPa NNE 4.6 mph /  7.4 km/h 4.6 mph /  7.4 km/h 22 % 0 in /  0.0 mm
19:03 43.9 °F /  6.6 °C 8.4 °F /  -13.1 °C 29.9 in /  1013.8 hPa NNE 2.3 mph /  3.7 km/h 2.3 mph /  3.7 km/h 23 % 0 in /  0.0 mm
19:08 43.7 °F /  6.5 °C 9.1 °F /  -12.7 °C 29.9 in /  1013.8 hPa ENE 1.2 mph /  1.9 km/h   24 % 0 in /  0.0 mm
19:18 43.7 °F /  6.5 °C 10 °F /  -12.2 °C 29.9 in /  1013.8 hPa NNE 1.2 mph /  1.9 km/h 1.2 mph /  1.9 km/h 25 % 0 in /  0.0 mm
19:23 43.7 °F /  6.5 °C 10 °F /  -12.2 °C 29.9 in /  1013.8 hPa Calm     25 % 0 in /  0.0 mm
19:28 43.5 °F /  6.4 °C 10 °F /  -12.2 °C 29.9 in /  1013.8 hPa Calm     25 % 0 in /  0.0 mm
19:33 43.5 °F /  6.4 °C 10 °F /  -12.2 °C 29.9 in /  1013.8 hPa Calm     25 % 0 in /  0.0 mm
19:38 43.5 °F /  6.4 °C 10.8 °F /  -11.8 °C 29.9 in /  1013.8 hPa Calm     26 % 0 in /  0.0 mm
19:43 43.5 °F /  6.4 °C 10.8 °F /  -11.8 °C 29.9 in /  1013.8 hPa NNE 1.2 mph /  1.9 km/h   26 % 0 in /  0.0 mm
19:48 43.3 °F /  6.3 °C 10.8 °F /  -11.8 °C 30 in /  1014.8 hPa NNE 2.4 mph /  3.9 km/h 2.4 mph /  3.9 km/h 26 % 0 in /  0.0 mm
19:58 43.2 °F /  6.2 °C 11.5 °F /  -11.4 °C 30 in /  1014.8 hPa South 2.6 mph /  4.2 km/h 2.6 mph /  4.2 km/h 27 % 0 in /  0.0 mm
20:08 43.3 °F /  6.3 °C 11.5 °F /  -11.4 °C 30 in /  1014.8 hPa South 3.5 mph /  5.6 km/h 3.5 mph /  5.6 km/h 27 % 0 in /  0.0 mm
20:13 43.3 °F /  6.3 °C 11.5 °F /  -11.4 °C 30 in /  1014.8 hPa West 1.6 mph /  2.6 km/h 1.6 mph /  2.6 km/h 27 % 0 in /  0.0 mm
20:28 43.3 °F /  6.3 °C 12.4 °F /  -10.9 °C 30 in /  1014.8 hPa Calm     28 % 0 in /  0.0 mm
20:33 43.3 °F /  6.3 °C 12.4 °F /  -10.9 °C 30 in /  1014.8 hPa NNE 1.2 mph /  1.9 km/h 1.2 mph /  1.9 km/h 28 % 0 in /  0.0 mm
20:43 43.2 °F /  6.2 °C 12.9 °F /  -10.6 °C 30 in /  1014.8 hPa SW 2.3 mph /  3.7 km/h 2.3 mph /  3.7 km/h 29 % 0 in /  0.0 mm
20:48 43 °F /  6.1 °C 12.7 °F /  -10.7 °C 30 in /  1015.8 hPa SW 1.2 mph /  1.9 km/h   29 % 0 in /  0.0 mm
20:53 43 °F /  6.1 °C 12.7 °F /  -10.7 °C 30 in /  1015.8 hPa Calm     29 % 0 in /  0.0 mm
20:58 43 °F /  6.1 °C 12.7 °F /  -10.7 °C 30 in /  1015.8 hPa NW 1.2 mph /  1.9 km/h   29 % 0 in /  0.0 mm
21:03 43.2 °F /  6.2 °C 12.9 °F /  -10.6 °C 30 in /  1015.8 hPa Calm     29 % 0 in /  0.0 mm
21:08 43 °F /  6.1 °C 12.7 °F /  -10.7 °C 30 in /  1015.8 hPa NW 1.2 mph /  1.9 km/h 1.2 mph /  1.9 km/h 29 % 0 in /  0.0 mm
21:18 42.8 °F /  6.0 °C 13.5 °F /  -10.3 °C 30 in /  1015.8 hPa Calm     30 % 0 in /  0.0 mm
21:23 42.8 °F /  6.0 °C 13.5 °F /  -10.3 °C 30 in /  1015.8 hPa Calm     30 % 0 in /  0.0 mm
21:28 42.6 °F /  5.9 °C 13.3 °F /  -10.4 °C 30 in /  1015.8 hPa Calm     30 % 0 in /  0.0 mm
21:38 42.4 °F /  5.8 °C 11.7 °F /  -11.3 °C 30 in /  1014.8 hPa Calm     28 % 0 in /  0.0 mm
21:43 42.6 °F /  5.9 °C 11.7 °F /  -11.3 °C 30 in /  1014.8 hPa SW 2.3 mph /  3.7 km/h 2.3 mph /  3.7 km/h 28 % 0 in /  0.0 mm
21:53 42.3 °F /  5.7 °C 12.2 °F /  -11.0 °C 30 in /  1015.8 hPa WSW 2.3 mph /  3.7 km/h 2.3 mph /  3.7 km/h 29 % 0 in /  0.0 mm
21:58 42.1 °F /  5.6 °C 12 °F /  -11.1 °C 30 in /  1015.8 hPa WSW 2.3 mph /  3.7 km/h 2.3 mph /  3.7 km/h 29 % 0 in /  0.0 mm
22:03 42.1 °F /  5.6 °C 11.3 °F /  -11.5 °C 30 in /  1015.8 hPa West 4.6 mph /  7.4 km/h 4.6 mph /  7.4 km/h 28 % 0 in /  0.0 mm
22:13 42.6 °F /  5.9 °C 10.9 °F /  -11.7 °C 30 in /  1015.8 hPa WSW 3.5 mph /  5.6 km/h 3.5 mph /  5.6 km/h 27 % 0 in /  0.0 mm
22:23 42.4 °F /  5.8 °C 9.9 °F /  -12.3 °C 30 in /  1015.8 hPa West 2.3 mph /  3.7 km/h 2.6 mph /  4.2 km/h 26 % 0 in /  0.0 mm
22:28 42.4 °F /  5.8 °C 9.9 °F /  -12.3 °C 30 in /  1015.8 hPa WSW 2.4 mph /  3.9 km/h 2.4 mph /  3.9 km/h 26 % 0 in /  0.0 mm
22:29 42.4 °F /  5.8 °C 9.9 °F /  -12.3 °C 30 in /  1014.8 hPa WNW 3.5 mph /  5.6 km/h 3.5 mph /  5.6 km/h 26 % 0 in /  0.0 mm
22:34 42.4 °F /  5.8 °C 9.9 °F /  -12.3 °C 30 in /  1014.8 hPa WSW 4.6 mph /  7.4 km/h 4.6 mph /  7.4 km/h 26 % 0 in /  0.0 mm
22:44 42.4 °F /  5.8 °C 9.9 °F /  -12.3 °C 30 in /  1015.8 hPa WSW 5.8 mph /  9.3 km/h 5.8 mph /  9.3 km/h 26 % 0 in /  0.0 mm
22:49 42.6 °F /  5.9 °C 9.1 °F /  -12.7 °C 30 in /  1015.8 hPa WSW 4.6 mph /  7.4 km/h 4.6 mph /  7.4 km/h 25 % 0 in /  0.0 mm
22:59 42.4 °F /  5.8 °C 9.9 °F /  -12.3 °C 30 in /  1015.8 hPa WNW 8.1 mph /  13.0 km/h 8.1 mph /  13.0 km/h 26 % 0 in /  0.0 mm
23:04 42.4 °F /  5.8 °C 9.9 °F /  -12.3 °C 30 in /  1015.8 hPa West 3.5 mph /  5.6 km/h 3.5 mph /  5.6 km/h 26 % 0 in /  0.0 mm
23:09 42.3 °F /  5.7 °C 9.9 °F /  -12.3 °C 30 in /  1015.8 hPa WSW 4.6 mph /  7.4 km/h 4.6 mph /  7.4 km/h 26 % 0 in /  0.0 mm
23:14 42.3 °F /  5.7 °C 9 °F /  -12.8 °C 30 in /  1015.8 hPa WSW 2.9 mph /  4.7 km/h 2.9 mph /  4.7 km/h 25 % 0 in /  0.0 mm
23:19 42.3 °F /  5.7 °C 9.9 °F /  -12.3 °C 30 in /  1015.8 hPa SW 3.5 mph /  5.6 km/h 3.5 mph /  5.6 km/h 26 % 0 in /  0.0 mm
23:24 42.3 °F /  5.7 °C 9.9 °F /  -12.3 °C 30 in /  1015.8 hPa WSW 4.6 mph /  7.4 km/h 4.6 mph /  7.4 km/h 26 % 0 in /  0.0 mm
23:35 42.4 °F /  5.8 °C 9 °F /  -12.8 °C 30 in /  1015.8 hPa West 2 mph /  3.2 km/h 7 mph /  11.3 km/h 25 % 0 in /  0.0 mm
23:40 42.6 °F /  5.9 °C 9.1 °F /  -12.7 °C 30 in /  1015.8 hPa WSW 9.2 mph /  14.8 km/h 9.2 mph /  14.8 km/h 25 % 0 in /  0.0 mm
23:50 42.4 °F /  5.8 °C 9 °F /  -12.8 °C 30 in /  1015.8 hPa WSW 3 mph /  4.8 km/h 8 mph /  12.9 km/h 25 % 0 in /  0.0 mm
Meteo Sesrovires
Elogis d' Weather Underground - 3.75 mb

Guio original per  Jim McMurry - jmcmurry@mwt.net Adaptat per a la plantilla per  Wim van der Kuil - Leuven-Template.eu

Trobareu la nostra informacio del temps tambe a:

Weather Underground

AWEKAS